sensor_id;sensor_type;location;lat;lon;timestamp;pressure;altitude;pressure_sealevel;temperature;humidity
56040;BME280;43937;41.366;2.072;2024-03-23T00:53:36;101007.09;;;17.73;62.47
56040;BME280;43937;41.366;2.072;2024-03-23T00:56:02;101007.31;;;17.71;62.12
56040;BME280;43937;41.366;2.072;2024-03-23T00:58:28;101013.78;;;17.92;62.00
56040;BME280;43937;41.366;2.072;2024-03-23T01:00:53;101020.38;;;18.11;61.50
56040;BME280;43937;41.366;2.072;2024-03-23T01:03:19;101012.28;;;17.89;61.54
56040;BME280;43937;41.366;2.072;2024-03-23T01:05:44;100990.72;;;17.45;62.53
56040;BME280;43937;41.366;2.072;2024-03-23T01:08:10;101011.44;;;17.40;63.40
56040;BME280;43937;41.366;2.072;2024-03-23T01:10:35;101004.63;;;17.36;63.05
56040;BME280;43937;41.366;2.072;2024-03-23T01:13:00;101001.44;;;17.26;63.73
56040;BME280;43937;41.366;2.072;2024-03-23T01:15:26;100990.22;;;17.28;63.14
56040;BME280;43937;41.366;2.072;2024-03-23T01:17:51;100987.66;;;17.26;63.30
56040;BME280;43937;41.366;2.072;2024-03-23T01:20:16;100943.13;;;17.03;63.18
56040;BME280;43937;41.366;2.072;2024-03-23T01:22:42;100983.09;;;17.40;62.06
56040;BME280;43937;41.366;2.072;2024-03-23T01:25:07;100915.28;;;17.19;62.25
56040;BME280;43937;41.366;2.072;2024-03-23T01:27:33;100933.09;;;17.36;61.75
56040;BME280;43937;41.366;2.072;2024-03-23T01:29:59;100970.03;;;17.62;61.61
56040;BME280;43937;41.366;2.072;2024-03-23T01:32:24;100968.09;;;17.56;62.24
56040;BME280;43937;41.366;2.072;2024-03-23T01:34:50;100968.03;;;17.43;62.16
56040;BME280;43937;41.366;2.072;2024-03-23T01:37:15;100965.69;;;17.33;62.67
56040;BME280;43937;41.366;2.072;2024-03-23T01:39:41;100939.38;;;17.17;62.76
56040;BME280;43937;41.366;2.072;2024-03-23T01:42:06;100951.22;;;17.11;63.15
56040;BME280;43937;41.366;2.072;2024-03-23T01:44:31;100943.63;;;17.20;63.17
56040;BME280;43937;41.366;2.072;2024-03-23T01:46:57;100943.97;;;17.03;63.78
56040;BME280;43937;41.366;2.072;2024-03-23T01:49:22;100932.94;;;16.97;63.97
56040;BME280;43937;41.366;2.072;2024-03-23T01:51:48;100942.69;;;16.99;64.06
56040;BME280;43937;41.366;2.072;2024-03-23T01:54:15;100912.97;;;16.81;64.11
56040;BME280;43937;41.366;2.072;2024-03-23T01:56:41;100927.84;;;16.93;63.84
56040;BME280;43937;41.366;2.072;2024-03-23T01:59:06;100938.94;;;17.07;63.85
56040;BME280;43937;41.366;2.072;2024-03-23T02:01:33;100929.63;;;17.08;63.49
56040;BME280;43937;41.366;2.072;2024-03-23T02:04:01;100919.13;;;16.83;64.49
56040;BME280;43937;41.366;2.072;2024-03-23T02:06:26;100936.94;;;16.94;64.12
56040;BME280;43937;41.366;2.072;2024-03-23T02:08:51;100909.00;;;16.90;63.75
56040;BME280;43937;41.366;2.072;2024-03-23T02:11:17;100929.22;;;17.11;63.38
56040;BME280;43937;41.366;2.072;2024-03-23T02:13:42;100897.56;;;16.80;63.45
56040;BME280;43937;41.366;2.072;2024-03-23T02:16:08;100916.44;;;16.97;63.09
56040;BME280;43937;41.366;2.072;2024-03-23T02:18:34;100935.56;;;17.18;62.86
56040;BME280;43937;41.366;2.072;2024-03-23T02:20:59;100899.09;;;16.96;62.73
56040;BME280;43937;41.366;2.072;2024-03-23T02:23:25;100940.31;;;17.37;62.17
56040;BME280;43937;41.366;2.072;2024-03-23T02:25:50;100942.41;;;17.35;61.76
56040;BME280;43937;41.366;2.072;2024-03-23T02:28:16;100928.25;;;17.38;61.54
56040;BME280;43937;41.366;2.072;2024-03-23T02:30:42;100928.69;;;17.42;61.40
56040;BME280;43937;41.366;2.072;2024-03-23T02:33:08;100912.13;;;17.29;61.32
56040;BME280;43937;41.366;2.072;2024-03-23T02:35:34;100910.00;;;17.24;61.83
56040;BME280;43937;41.366;2.072;2024-03-23T02:37:59;100861.03;;;17.00;61.33
56040;BME280;43937;41.366;2.072;2024-03-23T02:40:25;100886.09;;;17.25;61.13
56040;BME280;43937;41.366;2.072;2024-03-23T02:42:50;100930.81;;;17.47;61.19
56040;BME280;43937;41.366;2.072;2024-03-23T02:45:16;100860.69;;;17.23;60.71
56040;BME280;43937;41.366;2.072;2024-03-23T02:47:41;100925.09;;;17.42;61.36
56040;BME280;43937;41.366;2.072;2024-03-23T02:50:07;100896.28;;;17.31;61.12
56040;BME280;43937;41.366;2.072;2024-03-23T02:52:33;100908.16;;;17.38;61.21
56040;BME280;43937;41.366;2.072;2024-03-23T02:54:59;100921.75;;;17.66;60.39
56040;BME280;43937;41.366;2.072;2024-03-23T02:57:24;100892.47;;;17.45;60.91
56040;BME280;43937;41.366;2.072;2024-03-23T02:59:50;100914.34;;;17.67;60.45
56040;BME280;43937;41.366;2.072;2024-03-23T03:02:15;100869.19;;;17.34;60.42
56040;BME280;43937;41.366;2.072;2024-03-23T03:04:41;100914.13;;;17.68;60.24
56040;BME280;43937;41.366;2.072;2024-03-23T03:07:07;100918.78;;;17.61;60.46
56040;BME280;43937;41.366;2.072;2024-03-23T03:09:32;100911.75;;;17.52;60.48
56040;BME280;43937;41.366;2.072;2024-03-23T03:12:00;100918.91;;;17.26;61.46
56040;BME280;43937;41.366;2.072;2024-03-23T03:14:25;100938.16;;;17.33;61.35
56040;BME280;43937;41.366;2.072;2024-03-23T03:16:51;100921.13;;;17.03;62.18
56040;BME280;43937;41.366;2.072;2024-03-23T03:19:16;100930.44;;;17.02;62.68
56040;BME280;43937;41.366;2.072;2024-03-23T03:21:42;100875.50;;;16.39;63.52
56040;BME280;43937;41.366;2.072;2024-03-23T03:24:08;100909.50;;;16.66;63.61
56040;BME280;43937;41.366;2.072;2024-03-23T03:26:33;100884.47;;;16.54;63.62
56040;BME280;43937;41.366;2.072;2024-03-23T03:28:59;100912.91;;;16.75;63.09
56040;BME280;43937;41.366;2.072;2024-03-23T03:31:24;100930.09;;;16.77;63.67
56040;BME280;43937;41.366;2.072;2024-03-23T03:33:50;100932.03;;;16.83;63.26
56040;BME280;43937;41.366;2.072;2024-03-23T03:36:18;100925.53;;;16.62;64.00
56040;BME280;43937;41.366;2.072;2024-03-23T03:38:44;100938.13;;;16.50;64.25
56040;BME280;43937;41.366;2.072;2024-03-23T03:41:09;100924.56;;;16.42;64.88
56040;BME280;43937;41.366;2.072;2024-03-23T03:43:34;100897.59;;;16.24;64.79
56040;BME280;43937;41.366;2.072;2024-03-23T03:46:00;100942.28;;;16.39;65.06
56040;BME280;43937;41.366;2.072;2024-03-23T03:48:26;100940.50;;;16.25;65.37
56040;BME280;43937;41.366;2.072;2024-03-23T03:50:53;100943.25;;;16.25;65.69
56040;BME280;43937;41.366;2.072;2024-03-23T03:53:19;100928.16;;;16.14;65.27
56040;BME280;43937;41.366;2.072;2024-03-23T03:55:44;100944.94;;;16.26;65.25
56040;BME280;43937;41.366;2.072;2024-03-23T03:58:09;100939.03;;;16.29;65.32
56040;BME280;43937;41.366;2.072;2024-03-23T04:00:35;100914.06;;;16.24;64.79
56040;BME280;43937;41.366;2.072;2024-03-23T04:03:01;100914.06;;;16.24;64.59
56040;BME280;43937;41.366;2.072;2024-03-23T04:05:26;100896.63;;;16.38;64.07
56040;BME280;43937;41.366;2.072;2024-03-23T04:07:52;100914.06;;;16.52;63.93
56040;BME280;43937;41.366;2.072;2024-03-23T04:10:18;100934.53;;;16.78;63.37
56040;BME280;43937;41.366;2.072;2024-03-23T04:12:44;100921.22;;;16.81;62.39
56040;BME280;43937;41.366;2.072;2024-03-23T04:15:10;100901.16;;;16.87;61.87
56040;BME280;43937;41.366;2.072;2024-03-23T04:17:36;100907.91;;;16.85;61.76
56040;BME280;43937;41.366;2.072;2024-03-23T04:20:02;100871.88;;;16.73;62.12
56040;BME280;43937;41.366;2.072;2024-03-23T04:22:34;100906.69;;;16.94;61.68
56040;BME280;43937;41.366;2.072;2024-03-23T04:25:00;100924.97;;;17.15;61.50
56040;BME280;43937;41.366;2.072;2024-03-23T04:27:34;100907.19;;;17.04;61.26
56040;BME280;43937;41.366;2.072;2024-03-23T04:30:00;100929.00;;;17.12;61.44
56040;BME280;43937;41.366;2.072;2024-03-23T04:32:27;100928.34;;;17.04;61.65
56040;BME280;43937;41.366;2.072;2024-03-23T04:34:53;100937.06;;;17.14;61.48
56040;BME280;43937;41.366;2.072;2024-03-23T04:37:18;100926.66;;;17.09;61.69
56040;BME280;43937;41.366;2.072;2024-03-23T04:39:44;100923.56;;;17.26;61.29
56040;BME280;43937;41.366;2.072;2024-03-23T04:42:10;100925.47;;;17.25;61.04
56040;BME280;43937;41.366;2.072;2024-03-23T04:44:35;100921.81;;;17.18;61.18
56040;BME280;43937;41.366;2.072;2024-03-23T04:47:01;100862.78;;;16.72;61.80
56040;BME280;43937;41.366;2.072;2024-03-23T04:49:26;100929.59;;;17.01;61.67
56040;BME280;43937;41.366;2.072;2024-03-23T04:51:52;100928.69;;;16.94;62.12
56040;BME280;43937;41.366;2.072;2024-03-23T04:54:17;100918.59;;;17.01;61.98
56040;BME280;43937;41.366;2.072;2024-03-23T04:56:43;100935.13;;;17.08;61.82
56040;BME280;43937;41.366;2.072;2024-03-23T04:59:08;100946.47;;;16.91;62.17
56040;BME280;43937;41.366;2.072;2024-03-23T05:01:34;100916.19;;;16.57;62.44
56040;BME280;43937;41.366;2.072;2024-03-23T05:04:00;100955.09;;;16.60;62.90
56040;BME280;43937;41.366;2.072;2024-03-23T05:06:26;100957.41;;;16.57;63.20
56040;BME280;43937;41.366;2.072;2024-03-23T05:08:52;100972.91;;;16.64;62.70
56040;BME280;43937;41.366;2.072;2024-03-23T05:11:17;100926.50;;;16.20;63.14
56040;BME280;43937;41.366;2.072;2024-03-23T05:13:43;100988.97;;;16.39;63.61
56040;BME280;43937;41.366;2.072;2024-03-23T05:16:09;100979.59;;;16.27;63.82
56040;BME280;43937;41.366;2.072;2024-03-23T05:18:35;100988.84;;;16.47;63.18
56040;BME280;43937;41.366;2.072;2024-03-23T05:21:00;100976.78;;;16.48;63.18
56040;BME280;43937;41.366;2.072;2024-03-23T05:23:28;100965.44;;;16.30;63.65
56040;BME280;43937;41.366;2.072;2024-03-23T05:25:53;100996.94;;;16.56;63.34
56040;BME280;43937;41.366;2.072;2024-03-23T05:28:20;100989.66;;;16.41;63.19
56040;BME280;43937;41.366;2.072;2024-03-23T05:30:53;100958.41;;;16.21;63.61
56040;BME280;43937;41.366;2.072;2024-03-23T05:33:19;100973.97;;;16.35;63.29
56040;BME280;43937;41.366;2.072;2024-03-23T05:35:45;100999.38;;;16.72;62.85
56040;BME280;43937;41.366;2.072;2024-03-23T05:38:11;100972.25;;;16.62;62.50
56040;BME280;43937;41.366;2.072;2024-03-23T05:40:37;100967.25;;;16.44;62.77
56040;BME280;43937;41.366;2.072;2024-03-23T05:43:06;101010.66;;;16.77;62.50
56040;BME280;43937;41.366;2.072;2024-03-23T05:45:31;101013.41;;;16.77;62.51
56040;BME280;43937;41.366;2.072;2024-03-23T05:47:57;101011.19;;;16.66;62.70
56040;BME280;43937;41.366;2.072;2024-03-23T05:50:23;101003.97;;;16.86;61.95
56040;BME280;43937;41.366;2.072;2024-03-23T05:52:49;101003.97;;;16.86;61.88
56040;BME280;43937;41.366;2.072;2024-03-23T05:55:17;100962.09;;;16.63;61.61
56040;BME280;43937;41.366;2.072;2024-03-23T05:57:43;100994.88;;;16.86;61.61
56040;BME280;43937;41.366;2.072;2024-03-23T06:00:09;100965.66;;;16.85;61.39
56040;BME280;43937;41.366;2.072;2024-03-23T06:02:43;100987.94;;;16.97;60.75
56040;BME280;43937;41.366;2.072;2024-03-23T06:05:11;100985.47;;;17.08;63.23
56040;BME280;43937;41.366;2.072;2024-03-23T06:07:37;101004.22;;;17.39;61.25
56040;BME280;43937;41.366;2.072;2024-03-23T06:10:03;100992.66;;;17.57;60.51
56040;BME280;43937;41.366;2.072;2024-03-23T06:12:29;101005.94;;;18.08;61.91
56040;BME280;43937;41.366;2.072;2024-03-23T06:14:54;100962.41;;;17.64;58.89
56040;BME280;43937;41.366;2.072;2024-03-23T06:17:20;101008.69;;;17.89;58.62
56040;BME280;43937;41.366;2.072;2024-03-23T06:19:45;101008.63;;;17.82;61.15
56040;BME280;43937;41.366;2.072;2024-03-23T06:22:11;101024.81;;;18.05;58.13
56040;BME280;43937;41.366;2.072;2024-03-23T06:24:36;101032.88;;;18.13;58.60
56040;BME280;43937;41.366;2.072;2024-03-23T06:27:01;101036.84;;;17.91;57.70
56040;BME280;43937;41.366;2.072;2024-03-23T06:29:27;101029.03;;;18.01;57.79
56040;BME280;43937;41.366;2.072;2024-03-23T06:31:55;101024.31;;;17.81;57.50
56040;BME280;43937;41.366;2.072;2024-03-23T06:34:21;101034.31;;;17.89;57.68
56040;BME280;43937;41.366;2.072;2024-03-23T06:36:48;101042.97;;;17.79;58.11
56040;BME280;43937;41.366;2.072;2024-03-23T06:39:14;101048.06;;;17.89;58.05
56040;BME280;43937;41.366;2.072;2024-03-23T06:41:52;101028.13;;;17.80;57.62
56040;BME280;43937;41.366;2.072;2024-03-23T06:44:18;101057.50;;;18.35;58.28
56040;BME280;43937;41.366;2.072;2024-03-23T06:46:44;101070.69;;;18.79;57.48
56040;BME280;43937;41.366;2.072;2024-03-23T06:49:10;101052.88;;;18.88;55.27
56040;BME280;43937;41.366;2.072;2024-03-23T06:51:35;101072.06;;;19.41;54.23
56040;BME280;43937;41.366;2.072;2024-03-23T06:54:02;101085.56;;;19.70;52.21
56040;BME280;43937;41.366;2.072;2024-03-23T06:56:28;101070.97;;;20.39;50.70
56040;BME280;43937;41.366;2.072;2024-03-23T06:58:54;101087.91;;;21.06;48.92
56040;BME280;43937;41.366;2.072;2024-03-23T07:01:19;101109.41;;;22.63;46.23
56040;BME280;43937;41.366;2.072;2024-03-23T07:03:45;101090.25;;;23.79;43.48
56040;BME280;43937;41.366;2.072;2024-03-23T07:06:10;101118.44;;;23.71;42.67
56040;BME280;43937;41.366;2.072;2024-03-23T07:08:36;101106.63;;;22.21;45.43
56040;BME280;43937;41.366;2.072;2024-03-23T07:11:02;101086.06;;;22.10;45.93
56040;BME280;43937;41.366;2.072;2024-03-23T07:13:28;101077.09;;;21.78;46.37
56040;BME280;43937;41.366;2.072;2024-03-23T07:15:53;101103.75;;;21.79;46.87
56040;BME280;43937;41.366;2.072;2024-03-23T07:18:21;101112.81;;;21.68;46.63
56040;BME280;43937;41.366;2.072;2024-03-23T07:23:19;101116.72;;;22.88;44.36
56040;BME280;43937;41.366;2.072;2024-03-23T07:25:45;101111.28;;;24.15;44.36
56040;BME280;43937;41.366;2.072;2024-03-23T07:28:10;101086.53;;;24.42;40.80
56040;BME280;43937;41.366;2.072;2024-03-23T07:30:35;101124.00;;;24.40;42.96
56040;BME280;43937;41.366;2.072;2024-03-23T07:33:01;101132.56;;;24.50;44.10
56040;BME280;43937;41.366;2.072;2024-03-23T07:35:26;101133.97;;;24.98;43.10
56040;BME280;43937;41.366;2.072;2024-03-23T07:37:52;101143.81;;;26.17;39.72
56040;BME280;43937;41.366;2.072;2024-03-23T07:40:17;101149.94;;;26.41;38.22
56040;BME280;43937;41.366;2.072;2024-03-23T07:42:42;101150.59;;;26.48;38.10
56040;BME280;43937;41.366;2.072;2024-03-23T07:45:08;101147.88;;;27.98;34.92
56040;BME280;43937;41.366;2.072;2024-03-23T07:47:34;101161.03;;;29.37;34.17
56040;BME280;43937;41.366;2.072;2024-03-23T07:50:00;101168.94;;;30.75;31.56
56040;BME280;43937;41.366;2.072;2024-03-23T07:52:28;101167.38;;;29.94;30.77
56040;BME280;43937;41.366;2.072;2024-03-23T07:54:54;101151.47;;;29.69;31.40
56040;BME280;43937;41.366;2.072;2024-03-23T07:57:19;101156.53;;;28.69;33.55
56040;BME280;43937;41.366;2.072;2024-03-23T07:59:45;101153.03;;;28.31;33.27
56040;BME280;43937;41.366;2.072;2024-03-23T08:02:10;101155.94;;;29.64;32.94
56040;BME280;43937;41.366;2.072;2024-03-23T08:04:36;101148.50;;;31.03;30.12
56040;BME280;43937;41.366;2.072;2024-03-23T08:07:02;101150.91;;;28.74;32.93
56040;BME280;43937;41.366;2.072;2024-03-23T08:09:27;101160.16;;;27.12;37.05
56040;BME280;43937;41.366;2.072;2024-03-23T08:11:52;101160.06;;;26.75;36.58
56040;BME280;43937;41.366;2.072;2024-03-23T08:14:18;101151.31;;;26.39;38.58
56040;BME280;43937;41.366;2.072;2024-03-23T08:16:44;101146.91;;;24.59;42.66
56040;BME280;43937;41.366;2.072;2024-03-23T08:19:14;101146.91;;;23.90;45.10
56040;BME280;43937;41.366;2.072;2024-03-23T08:21:39;101161.06;;;24.86;43.18
56040;BME280;43937;41.366;2.072;2024-03-23T08:24:05;101165.28;;;24.03;45.37
56040;BME280;43937;41.366;2.072;2024-03-23T08:26:31;101133.19;;;23.24;47.40
56040;BME280;43937;41.366;2.072;2024-03-23T08:28:56;101152.03;;;22.80;48.14
56040;BME280;43937;41.366;2.072;2024-03-23T08:31:22;101163.97;;;22.39;50.32
56040;BME280;43937;41.366;2.072;2024-03-23T08:33:47;101182.56;;;22.80;49.40
56040;BME280;43937;41.366;2.072;2024-03-23T08:36:13;101174.56;;;22.72;49.00
56040;BME280;43937;41.366;2.072;2024-03-23T08:38:40;101185.13;;;22.52;49.55
56040;BME280;43937;41.366;2.072;2024-03-23T08:41:10;101192.59;;;22.81;49.22
56040;BME280;43937;41.366;2.072;2024-03-23T08:43:40;101197.25;;;22.69;49.62
56040;BME280;43937;41.366;2.072;2024-03-23T08:46:12;101193.88;;;22.97;48.59
56040;BME280;43937;41.366;2.072;2024-03-23T08:48:39;101202.94;;;23.04;48.36
56040;BME280;43937;41.366;2.072;2024-03-23T08:51:08;101180.16;;;24.37;45.52
56040;BME280;43937;41.366;2.072;2024-03-23T08:53:35;101203.81;;;25.42;42.94
56040;BME280;43937;41.366;2.072;2024-03-23T08:56:01;101207.03;;;24.60;44.10
56040;BME280;43937;41.366;2.072;2024-03-23T08:58:28;101206.66;;;24.28;45.59
56040;BME280;43937;41.366;2.072;2024-03-23T09:00:56;101202.09;;;25.07;44.39
56040;BME280;43937;41.366;2.072;2024-03-23T09:03:24;101214.47;;;25.45;43.33
56040;BME280;43937;41.366;2.072;2024-03-23T09:05:51;101201.41;;;25.85;42.20
56040;BME280;43937;41.366;2.072;2024-03-23T09:08:17;101219.09;;;26.12;42.27
56040;BME280;43937;41.366;2.072;2024-03-23T09:10:42;101208.00;;;26.17;39.87
56040;BME280;43937;41.366;2.072;2024-03-23T09:13:08;101190.97;;;26.63;37.95
56040;BME280;43937;41.366;2.072;2024-03-23T09:15:35;101215.00;;;26.64;39.51
56040;BME280;43937;41.366;2.072;2024-03-23T09:18:02;101178.75;;;26.69;39.74
56040;BME280;43937;41.366;2.072;2024-03-23T09:20:28;101229.03;;;27.60;38.11
56040;BME280;43937;41.366;2.072;2024-03-23T09:22:54;101225.81;;;27.42;37.84
56040;BME280;43937;41.366;2.072;2024-03-23T09:25:19;101236.59;;;27.28;38.50
56040;BME280;43937;41.366;2.072;2024-03-23T09:27:46;101244.69;;;27.24;38.92
56040;BME280;43937;41.366;2.072;2024-03-23T09:30:12;101245.34;;;26.82;39.04
56040;BME280;43937;41.366;2.072;2024-03-23T09:32:38;101249.06;;;26.44;39.60
56040;BME280;43937;41.366;2.072;2024-03-23T09:35:04;101236.56;;;25.52;39.94
56040;BME280;43937;41.366;2.072;2024-03-23T09:37:29;101241.13;;;25.58;40.54
56040;BME280;43937;41.366;2.072;2024-03-23T09:39:55;101240.09;;;25.47;40.36
56040;BME280;43937;41.366;2.072;2024-03-23T09:42:20;101228.63;;;25.44;41.77
56040;BME280;43937;41.366;2.072;2024-03-23T09:44:47;101218.56;;;25.59;41.05
56040;BME280;43937;41.366;2.072;2024-03-23T09:47:16;101241.63;;;25.38;41.69
56040;BME280;43937;41.366;2.072;2024-03-23T09:49:42;101237.69;;;25.51;40.66
56040;BME280;43937;41.366;2.072;2024-03-23T09:52:07;101220.53;;;25.42;40.04
56040;BME280;43937;41.366;2.072;2024-03-23T09:54:33;101202.56;;;25.72;39.89
56040;BME280;43937;41.366;2.072;2024-03-23T09:56:58;101244.16;;;25.73;40.13
56040;BME280;43937;41.366;2.072;2024-03-23T09:59:24;101257.16;;;26.01;39.55
56040;BME280;43937;41.366;2.072;2024-03-23T10:01:52;101198.50;;;25.79;39.50
56040;BME280;43937;41.366;2.072;2024-03-23T10:04:37;101245.09;;;25.79;40.64
56040;BME280;43937;41.366;2.072;2024-03-23T10:07:17;101250.47;;;25.69;40.17
56040;BME280;43937;41.366;2.072;2024-03-23T10:09:43;101246.69;;;25.92;40.27
56040;BME280;43937;41.366;2.072;2024-03-23T10:12:10;101225.84;;;25.61;40.20
56040;BME280;43937;41.366;2.072;2024-03-23T10:14:35;101238.53;;;26.29;40.59
56040;BME280;43937;41.366;2.072;2024-03-23T10:17:21;101245.44;;;26.92;39.54
56040;BME280;43937;41.366;2.072;2024-03-23T10:19:51;101242.50;;;27.31;38.48
56040;BME280;43937;41.366;2.072;2024-03-23T10:22:22;101236.50;;;27.50;38.59
56040;BME280;43937;41.366;2.072;2024-03-23T10:24:49;101242.16;;;27.97;37.82
56040;BME280;43937;41.366;2.072;2024-03-23T10:27:19;101218.75;;;27.71;37.36
56040;BME280;43937;41.366;2.072;2024-03-23T10:29:45;101241.13;;;28.14;36.68
56040;BME280;43937;41.366;2.072;2024-03-23T10:32:12;101228.72;;;28.42;36.09
56040;BME280;43937;41.366;2.072;2024-03-23T10:34:38;101220.22;;;27.42;38.52
56040;BME280;43937;41.366;2.072;2024-03-23T10:37:04;101208.28;;;26.92;39.46
56040;BME280;43937;41.366;2.072;2024-03-23T10:39:32;101209.47;;;26.69;40.33
56040;BME280;43937;41.366;2.072;2024-03-23T10:42:01;101210.44;;;27.12;40.08
56040;BME280;43937;41.366;2.072;2024-03-23T10:44:28;101187.44;;;27.74;38.98
56040;BME280;43937;41.366;2.072;2024-03-23T10:46:55;101198.47;;;27.49;39.30
56040;BME280;43937;41.366;2.072;2024-03-23T10:49:26;101192.97;;;26.94;40.55
56040;BME280;43937;41.366;2.072;2024-03-23T10:51:52;101159.47;;;25.79;41.90
56040;BME280;43937;41.366;2.072;2024-03-23T10:54:18;101179.72;;;26.09;41.68
56040;BME280;43937;41.366;2.072;2024-03-23T10:56:46;101181.25;;;25.99;42.39
56040;BME280;43937;41.366;2.072;2024-03-23T10:59:12;101181.63;;;26.30;41.93
56040;BME280;43937;41.366;2.072;2024-03-23T11:01:57;101171.44;;;26.19;41.51
56040;BME280;43937;41.366;2.072;2024-03-23T11:04:35;101179.84;;;25.97;42.73
56040;BME280;43937;41.366;2.072;2024-03-23T11:07:02;101162.19;;;25.74;42.78
56040;BME280;43937;41.366;2.072;2024-03-23T11:09:40;101175.06;;;26.19;42.20
56040;BME280;43937;41.366;2.072;2024-03-23T11:14:47;101164.22;;;26.45;40.84
56040;BME280;43937;41.366;2.072;2024-03-23T11:17:18;101141.88;;;25.96;40.48
56040;BME280;43937;41.366;2.072;2024-03-23T11:19:43;101166.47;;;26.21;40.04
56040;BME280;43937;41.366;2.072;2024-03-23T11:22:08;101163.84;;;26.36;39.47
56040;BME280;43937;41.366;2.072;2024-03-23T11:24:34;101170.47;;;26.08;39.31
56040;BME280;43937;41.366;2.072;2024-03-23T11:27:00;101170.34;;;26.20;38.63
56040;BME280;43937;41.366;2.072;2024-03-23T11:29:27;101167.22;;;25.55;39.42
56040;BME280;43937;41.366;2.072;2024-03-23T11:31:53;101164.41;;;25.72;39.95
56040;BME280;43937;41.366;2.072;2024-03-23T11:34:19;101159.31;;;25.30;39.65
56040;BME280;43937;41.366;2.072;2024-03-23T11:36:46;101176.38;;;25.51;39.78
56040;BME280;43937;41.366;2.072;2024-03-23T11:39:19;101174.00;;;25.26;40.42
56040;BME280;43937;41.366;2.072;2024-03-23T11:41:57;101181.47;;;25.59;40.07
56040;BME280;43937;41.366;2.072;2024-03-23T11:44:25;101190.06;;;26.13;39.36
56040;BME280;43937;41.366;2.072;2024-03-23T11:46:51;101183.53;;;26.24;38.88
56040;BME280;43937;41.366;2.072;2024-03-23T11:49:28;101183.06;;;26.11;38.95
56040;BME280;43937;41.366;2.072;2024-03-23T11:51:55;101186.75;;;26.38;39.16
56040;BME280;43937;41.366;2.072;2024-03-23T11:54:24;101165.16;;;25.85;40.18
56040;BME280;43937;41.366;2.072;2024-03-23T11:57:04;101195.66;;;25.74;39.96
56040;BME280;43937;41.366;2.072;2024-03-23T11:59:40;101191.59;;;25.65;39.50
56040;BME280;43937;41.366;2.072;2024-03-23T12:02:10;101198.84;;;26.00;39.83
56040;BME280;43937;41.366;2.072;2024-03-23T12:04:37;101195.38;;;26.37;38.73
56040;BME280;43937;41.366;2.072;2024-03-23T12:07:19;101191.97;;;26.30;38.22
56040;BME280;43937;41.366;2.072;2024-03-23T12:09:46;101188.13;;;26.58;39.80
56040;BME280;43937;41.366;2.072;2024-03-23T12:12:16;101193.53;;;26.97;38.33
56040;BME280;43937;41.366;2.072;2024-03-23T12:15:01;101192.53;;;26.81;40.25
56040;BME280;43937;41.366;2.072;2024-03-23T12:17:27;101167.59;;;26.69;39.68
56040;BME280;43937;41.366;2.072;2024-03-23T12:19:52;101181.63;;;26.30;39.87
56040;BME280;43937;41.366;2.072;2024-03-23T12:22:21;101178.91;;;25.91;39.39
56040;BME280;43937;41.366;2.072;2024-03-23T12:24:48;101182.38;;;26.20;39.09
56040;BME280;43937;41.366;2.072;2024-03-23T12:27:13;101162.47;;;25.56;40.37
56040;BME280;43937;41.366;2.072;2024-03-23T12:29:40;101172.41;;;25.30;40.56
56040;BME280;43937;41.366;2.072;2024-03-23T12:32:06;101165.69;;;25.65;38.91
56040;BME280;43937;41.366;2.072;2024-03-23T12:34:32;101169.78;;;25.79;39.36
56040;BME280;43937;41.366;2.072;2024-03-23T12:36:58;101136.69;;;26.04;39.04
56040;BME280;43937;41.366;2.072;2024-03-23T12:39:24;101154.56;;;26.31;38.30
56040;BME280;43937;41.366;2.072;2024-03-23T12:41:49;101154.44;;;26.42;38.41
56040;BME280;43937;41.366;2.072;2024-03-23T12:44:15;101153.84;;;26.40;37.59
56040;BME280;43937;41.366;2.072;2024-03-23T12:46:41;101152.19;;;26.66;37.96
56040;BME280;43937;41.366;2.072;2024-03-23T12:49:07;101123.41;;;26.39;38.41
56040;BME280;43937;41.366;2.072;2024-03-23T12:51:33;101117.28;;;26.96;37.24
56040;BME280;43937;41.366;2.072;2024-03-23T12:53:58;101136.81;;;26.64;36.69
56040;BME280;43937;41.366;2.072;2024-03-23T12:56:24;101110.53;;;26.11;37.46
56040;BME280;43937;41.366;2.072;2024-03-23T12:58:49;101140.50;;;26.47;37.23
56040;BME280;43937;41.366;2.072;2024-03-23T13:01:17;101137.63;;;26.37;36.99
56040;BME280;43937;41.366;2.072;2024-03-23T13:03:43;101125.38;;;26.16;36.56
56040;BME280;43937;41.366;2.072;2024-03-23T13:06:10;101125.69;;;25.54;37.10
56040;BME280;43937;41.366;2.072;2024-03-23T13:08:35;101132.13;;;25.38;38.18
56040;BME280;43937;41.366;2.072;2024-03-23T13:11:01;101132.19;;;24.92;39.32
56040;BME280;43937;41.366;2.072;2024-03-23T13:13:26;101137.28;;;25.12;40.18
56040;BME280;43937;41.366;2.072;2024-03-23T13:15:52;101118.78;;;25.23;39.14
56040;BME280;43937;41.366;2.072;2024-03-23T13:18:17;101130.16;;;25.38;40.35
56040;BME280;43937;41.366;2.072;2024-03-23T13:20:42;101104.16;;;25.32;41.60
56040;BME280;43937;41.366;2.072;2024-03-23T13:23:08;101128.78;;;25.57;41.69
56040;BME280;43937;41.366;2.072;2024-03-23T13:25:34;101134.16;;;25.42;40.44
56040;BME280;43937;41.366;2.072;2024-03-23T13:27:59;101123.06;;;24.80;41.38
56040;BME280;43937;41.366;2.072;2024-03-23T13:30:26;101114.28;;;25.05;41.47
56040;BME280;43937;41.366;2.072;2024-03-23T13:32:51;101109.31;;;24.73;41.87
56040;BME280;43937;41.366;2.072;2024-03-23T13:35:17;101104.91;;;24.32;41.47
56040;BME280;43937;41.366;2.072;2024-03-23T13:37:43;101109.88;;;24.30;41.71
56040;BME280;43937;41.366;2.072;2024-03-23T13:40:09;101117.66;;;24.90;41.28
56040;BME280;43937;41.366;2.072;2024-03-23T13:42:34;101119.88;;;24.88;41.07
56040;BME280;43937;41.366;2.072;2024-03-23T13:45:00;101115.31;;;24.82;41.74